Time;durP1;ratioP1;P1;durP2;ratioP2;P2;SDS_P1;SDS_P2;PMS_P1;PMS_P2;Temp;Humidity;BMP_temperature;BMP_pressure;BME280_temperature;BME280_humidity;BME280_pressure;Samples;Min_cycle;Max_cycle;Signal;HPM_P1;HPM_P2
2023/12/14 00:00:47;;;;;;;7.20;6.50;;;6.70;99.90;;;;;;5073061;28;20717;-70
2023/12/14 00:03:14;;;;;;;8.40;7.50;;;6.70;99.90;;;;;;5072714;28;20678;-71
2023/12/14 00:05:43;;;;;;;7.47;6.75;;;6.60;99.90;;;;;;5068734;28;20248;-71
2023/12/14 00:08:09;;;;;;;6.28;5.68;;;6.60;99.90;;;;;;5071286;28;20238;-72
2023/12/14 00:10:36;;;;;;;7.18;6.07;;;6.70;99.90;;;;;;5070880;28;20261;-69
2023/12/14 00:13:04;;;;;;;7.63;6.78;;;6.70;99.90;;;;;;5062458;28;20270;-71
2023/12/14 00:15:31;;;;;;;7.93;7.13;;;6.70;99.90;;;;;;5072111;28;20196;-72
2023/12/14 00:17:58;;;;;;;9.77;7.63;;;6.60;99.90;;;;;;5063753;28;20208;-69
2023/12/14 00:20:25;;;;;;;7.93;6.85;;;6.70;99.90;;;;;;5071845;28;20251;-72
2023/12/14 00:22:53;;;;;;;8.00;7.18;;;6.70;99.90;;;;;;5065647;28;20208;-72
2023/12/14 00:25:20;;;;;;;9.15;7.65;;;6.70;99.90;;;;;;5064332;28;20267;-71
2023/12/14 00:27:47;;;;;;;9.85;8.55;;;6.70;99.90;;;;;;5069882;28;20208;-72
2023/12/14 00:30:14;;;;;;;8.55;7.65;;;6.70;99.90;;;;;;5063969;28;20220;-71
2023/12/14 00:32:41;;;;;;;11.43;8.48;;;6.70;99.90;;;;;;5070867;28;20262;-71
2023/12/14 00:35:08;;;;;;;8.68;7.78;;;6.70;99.90;;;;;;5069985;28;20616;-69
2023/12/14 00:37:34;;;;;;;10.48;9.23;;;6.70;99.90;;;;;;5064518;28;20555;-70
2023/12/14 00:40:03;;;;;;;9.67;7.47;;;6.70;99.90;;;;;;5071533;28;20221;-71
2023/12/14 00:42:30;;;;;;;8.52;7.47;;;6.70;99.90;;;;;;5064054;28;20449;-72
2023/12/14 00:44:57;;;;;;;11.48;8.52;;;6.60;99.90;;;;;;5071798;28;20223;-71
2023/12/14 00:47:24;;;;;;;8.23;7.35;;;6.40;99.90;;;;;;5065966;28;20196;-70
2023/12/14 00:49:51;;;;;;;9.63;7.50;;;6.40;99.90;;;;;;5071910;28;20231;-71
2023/12/14 00:52:18;;;;;;;9.95;7.95;;;6.40;99.90;;;;;;5072593;28;20253;-72
2023/12/14 00:54:45;;;;;;;10.63;8.43;;;6.40;99.90;;;;;;5071688;28;20234;-71
2023/12/14 00:57:13;;;;;;;9.40;7.88;;;6.30;99.90;;;;;;5069891;28;20249;-69
2023/12/14 00:59:40;;;;;;;11.07;9.02;;;6.40;99.90;;;;;;5070660;28;20303;-72
2023/12/14 01:02:07;;;;;;;8.63;7.68;;;6.40;99.90;;;;;;5069553;28;20214;-68
2023/12/14 01:04:34;;;;;;;11.63;7.65;;;6.30;99.90;;;;;;5068222;28;20227;-72
2023/12/14 01:07:01;;;;;;;8.65;6.40;;;6.40;99.90;;;;;;5069525;28;20249;-69
2023/12/14 01:09:28;;;;;;;10.88;7.95;;;6.40;99.90;;;;;;5076138;28;20231;-72
2023/12/14 01:11:55;;;;;;;7.15;6.30;;;6.40;99.90;;;;;;5072418;28;20222;-69
2023/12/14 01:14:23;;;;;;;8.98;5.70;;;6.40;99.90;;;;;;5072314;28;20300;-74
2023/12/14 01:16:50;;;;;;;8.48;6.53;;;6.40;99.90;;;;;;5068351;28;20245;-70
2023/12/14 01:19:17;;;;;;;7.40;6.70;;;6.50;99.90;;;;;;5074063;28;20272;-73
2023/12/14 01:21:45;;;;;;;9.18;6.03;;;6.50;99.90;;;;;;5071863;28;20261;-71
2023/12/14 01:24:12;;;;;;;6.32;5.55;;;6.50;99.90;;;;;;5073352;28;20203;-69
2023/12/14 01:26:39;;;;;;;6.30;4.93;;;6.40;99.90;;;;;;5074400;28;20250;-71
2023/12/14 01:29:06;;;;;;;7.95;5.57;;;6.50;99.90;;;;;;5072495;28;20239;-69
2023/12/14 01:31:34;;;;;;;6.53;5.72;;;6.50;99.90;;;;;;5066431;28;20251;-71
2023/12/14 01:34:01;;;;;;;6.75;5.35;;;6.40;99.90;;;;;;5069326;28;20265;-70
2023/12/14 01:36:28;;;;;;;6.53;4.97;;;6.40;99.90;;;;;;5072582;28;20227;-69
2023/12/14 01:38:55;;;;;;;5.55;4.43;;;6.40;99.90;;;;;;5069737;28;20207;-68
2023/12/14 01:41:22;;;;;;;5.63;4.60;;;6.40;99.90;;;;;;5070991;28;20258;-71
2023/12/14 01:43:49;;;;;;;6.10;5.00;;;6.40;99.90;;;;;;5073236;28;20235;-72
2023/12/14 01:46:16;;;;;;;6.35;5.18;;;6.40;99.90;;;;;;5074417;28;20259;-70
2023/12/14 01:48:44;;;;;;;7.65;4.95;;;6.40;99.90;;;;;;5073163;28;20214;-70
2023/12/14 01:51:11;;;;;;;6.93;4.63;;;6.40;99.90;;;;;;5071906;28;20250;-71
2023/12/14 01:53:38;;;;;;;6.63;3.97;;;6.30;99.90;;;;;;5071570;28;20624;-70
2023/12/14 01:56:06;;;;;;;7.45;5.07;;;6.30;99.90;;;;;;5072624;28;20264;-69
2023/12/14 01:58:33;;;;;;;8.57;4.88;;;6.30;99.90;;;;;;5069341;28;20200;-70
2023/12/14 02:01:08;;;;;;;8.05;4.85;;;6.20;99.90;;;;;;5073809;28;20227;-68
2023/12/14 02:03:35;;;;;;;7.07;4.47;;;6.30;99.90;;;;;;5066607;28;20202;-67
2023/12/14 02:06:03;;;;;;;13.40;6.55;;;6.20;99.90;;;;;;5068119;28;20252;-69
2023/12/14 02:08:30;;;;;;;8.68;4.75;;;6.20;99.90;;;;;;5059626;28;20686;-69
2023/12/14 02:10:57;;;;;;;6.90;4.88;;;6.10;99.90;;;;;;5068716;28;20314;-69
2023/12/14 02:13:25;;;;;;;7.80;3.97;;;6.10;99.90;;;;;;5066637;28;20243;-69
2023/12/14 02:15:53;;;;;;;8.05;4.75;;;6.10;99.90;;;;;;5070899;28;20208;-69
2023/12/14 02:18:20;;;;;;;4.40;3.50;;;6.00;99.90;;;;;;5067130;28;20587;-72
2023/12/14 02:20:47;;;;;;;6.22;4.20;;;6.00;99.90;;;;;;5072933;28;20719;-71
2023/12/14 02:23:15;;;;;;;7.60;4.70;;;6.00;99.90;;;;;;5066180;28;20204;-73
2023/12/14 02:25:42;;;;;;;4.10;3.55;;;6.00;99.90;;;;;;5072715;28;20224;-71
2023/12/14 02:28:09;;;;;;;4.75;4.35;;;6.10;99.90;;;;;;5067300;28;20627;-68
2023/12/14 02:30:36;;;;;;;3.92;3.42;;;6.10;99.90;;;;;;5072469;28;20258;-69
2023/12/14 02:33:03;;;;;;;5.57;4.05;;;6.20;99.90;;;;;;5067683;28;20204;-71
2023/12/14 02:35:30;;;;;;;4.45;3.95;;;6.20;99.90;;;;;;5067888;28;20226;-69
2023/12/14 02:37:57;;;;;;;5.90;3.92;;;6.30;99.90;;;;;;5066236;28;20645;-70
2023/12/14 02:40:25;;;;;;;6.15;4.00;;;6.30;99.90;;;;;;5069380;28;20255;-74
2023/12/14 02:42:52;;;;;;;4.50;3.20;;;6.40;99.90;;;;;;5073821;28;20234;-71
2023/12/14 02:45:19;;;;;;;6.45;4.50;;;6.40;99.90;;;;;;5070162;28;20259;-69
2023/12/14 02:47:47;;;;;;;4.15;3.55;;;6.50;99.90;;;;;;5067346;28;20276;-71
2023/12/14 02:50:14;;;;;;;4.97;3.88;;;6.50;99.90;;;;;;5073552;28;20230;-70
2023/12/14 02:52:42;;;;;;;5.15;3.65;;;6.50;99.90;;;;;;5069959;28;20287;-68
2023/12/14 02:55:09;;;;;;;11.05;4.38;;;6.60;99.90;;;;;;5065570;28;20296;-69
2023/12/14 02:57:39;;;;;;;6.40;4.40;;;6.60;99.90;;;;;;5070229;28;20232;-69
2023/12/14 03:00:07;;;;;;;6.80;4.85;;;6.50;99.90;;;;;;5066460;28;20258;-71
2023/12/14 03:02:34;;;;;;;5.97;4.05;;;6.50;99.90;;;;;;5061726;28;20228;-69
2023/12/14 03:05:13;;;;;;;4.60;4.15;;;6.50;99.90;;;;;;5072710;28;20320;-71
2023/12/14 03:07:40;;;;;;;7.75;4.80;;;6.50;99.90;;;;;;5063112;28;20666;-68
2023/12/14 03:10:08;;;;;;;5.88;4.07;;;6.50;99.90;;;;;;5069218;28;20227;-66
2023/12/14 03:12:35;;;;;;;6.70;4.43;;;6.60;99.90;;;;;;5058186;28;20723;-71
2023/12/14 03:15:04;;;;;;;8.27;5.20;;;6.60;99.90;;;;;;5070218;28;20245;-72
2023/12/14 03:17:44;;;;;;;6.45;4.32;;;6.60;99.90;;;;;;5062708;28;20291;-71
2023/12/14 03:20:14;;;;;;;5.97;4.45;;;6.70;99.90;;;;;;5073045;28;20265;-69
2023/12/14 03:22:41;;;;;;;9.82;4.20;;;6.70;99.90;;;;;;5059015;28;20651;-69
2023/12/14 03:25:10;;;;;;;5.65;4.03;;;6.70;99.90;;;;;;5059509;28;20243;-73
2023/12/14 03:27:59;;;;;;;7.35;4.28;;;6.70;99.90;;;;;;5073896;28;20199;-71
2023/12/14 03:30:27;;;;;;;5.65;3.17;;;6.60;99.90;;;;;;5072848;28;20263;-71
2023/12/14 03:32:54;;;;;;;5.75;3.67;;;6.60;99.90;;;;;;5065004;28;20286;-68
2023/12/14 03:35:22;;;;;;;6.50;4.57;;;6.60;99.90;;;;;;5072880;28;20245;-69
2023/12/14 03:37:49;;;;;;;5.03;4.20;;;6.50;99.90;;;;;;5066898;28;20199;-73
2023/12/14 03:40:16;;;;;;;4.57;3.55;;;6.60;99.90;;;;;;5070095;28;20246;-70
2023/12/14 03:42:43;;;;;;;4.40;3.45;;;6.60;99.90;;;;;;5067038;28;20235;-69
2023/12/14 03:45:10;;;;;;;8.13;4.22;;;6.70;99.90;;;;;;5068030;28;20265;-68
2023/12/14 03:47:39;;;;;;;4.85;3.70;;;6.70;99.90;;;;;;5065436;28;20262;-67
2023/12/14 03:50:07;;;;;;;7.70;4.10;;;6.60;99.90;;;;;;5067888;28;20276;-68
2023/12/14 03:52:34;;;;;;;5.97;3.72;;;6.60;99.90;;;;;;5068436;28;20625;-70
2023/12/14 03:55:01;;;;;;;4.97;3.47;;;6.60;99.90;;;;;;5066887;28;20235;-70
2023/12/14 03:57:28;;;;;;;6.05;3.63;;;6.60;99.90;;;;;;5070347;28;20654;-70
2023/12/14 03:59:55;;;;;;;6.53;4.80;;;6.60;99.90;;;;;;5065311;28;20226;-70
2023/12/14 04:02:22;;;;;;;6.43;4.60;;;6.60;99.90;;;;;;5069636;28;20392;-70
2023/12/14 04:04:50;;;;;;;5.90;4.40;;;6.60;99.90;;;;;;5064328;28;20212;-70
2023/12/14 04:07:17;;;;;;;6.05;4.38;;;6.60;99.90;;;;;;5069523;28;20310;-70
2023/12/14 04:09:45;;;;;;;6.35;3.40;;;6.60;99.90;;;;;;5068621;28;20308;-71
2023/12/14 04:12:12;;;;;;;8.75;3.53;;;6.70;99.90;;;;;;5064901;28;20235;-70
2023/12/14 04:14:39;;;;;;;6.47;3.67;;;6.60;99.90;;;;;;5068989;28;20230;-72
2023/12/14 04:17:06;;;;;;;5.95;3.42;;;6.70;99.90;;;;;;5067586;28;20231;-70
2023/12/14 04:19:33;;;;;;;5.57;3.45;;;6.60;99.90;;;;;;5071954;28;20727;-71
2023/12/14 04:22:01;;;;;;;6.68;4.03;;;6.70;99.90;;;;;;5069114;28;20266;-68
2023/12/14 04:24:28;;;;;;;3.88;3.20;;;6.70;99.90;;;;;;5071360;28;20199;-68
2023/12/14 04:26:55;;;;;;;7.80;5.22;;;6.80;99.90;;;;;;5068463;28;20698;-69
2023/12/14 04:29:22;;;;;;;8.23;3.88;;;6.70;99.90;;;;;;5063188;28;20246;-71
2023/12/14 04:31:49;;;;;;;3.83;3.30;;;6.70;99.90;;;;;;5071508;28;20258;-71
2023/12/14 04:34:18;;;;;;;8.40;4.30;;;6.70;99.90;;;;;;5065008;28;20230;-71
2023/12/14 04:36:46;;;;;;;7.70;3.90;;;6.70;99.90;;;;;;5071122;28;20245;-68
2023/12/14 04:39:15;;;;;;;5.32;3.80;;;6.80;99.90;;;;;;5064325;28;20232;-68
2023/12/14 04:41:42;;;;;;;4.35;3.40;;;6.70;99.90;;;;;;5065930;28;20647;-69
2023/12/14 04:44:10;;;;;;;4.45;3.65;;;6.80;99.90;;;;;;5067737;28;20642;-72
2023/12/14 04:46:37;;;;;;;6.90;3.80;;;6.80;99.90;;;;;;5070555;28;20250;-72
2023/12/14 04:49:04;;;;;;;4.60;3.75;;;6.90;99.90;;;;;;5069989;28;20666;-71
2023/12/14 04:51:31;;;;;;;5.90;3.80;;;6.90;99.90;;;;;;5067560;28;20243;-70
2023/12/14 04:53:58;;;;;;;4.00;2.72;;;6.90;99.90;;;;;;5066701;28;20595;-71
2023/12/14 04:56:27;;;;;;;4.45;2.83;;;6.80;99.90;;;;;;5063336;28;20595;-68
2023/12/14 04:58:54;;;;;;;3.92;2.53;;;6.80;99.90;;;;;;5071039;28;20203;-68
2023/12/14 05:01:21;;;;;;;8.38;3.00;;;6.80;99.90;;;;;;5065765;28;20222;-71
2023/12/14 05:03:48;;;;;;;4.28;3.17;;;6.80;99.90;;;;;;5062895;28;20284;-71
2023/12/14 05:06:14;;;;;;;4.35;3.60;;;6.80;99.90;;;;;;5065997;28;20227;-72
2023/12/14 05:08:41;;;;;;;5.43;3.30;;;6.90;99.90;;;;;;5061004;28;20231;-71
2023/12/14 05:11:09;;;;;;;4.15;3.15;;;6.90;99.90;;;;;;5067412;28;20227;-71
2023/12/14 05:13:38;;;;;;;5.68;3.45;;;6.90;99.90;;;;;;5066259;28;20722;-72
2023/12/14 05:16:05;;;;;;;7.80;4.03;;;6.90;99.90;;;;;;5059399;28;20246;-69
2023/12/14 05:18:32;;;;;;;7.13;4.22;;;6.80;99.90;;;;;;5064741;28;20235;-69
2023/12/14 05:21:00;;;;;;;5.85;3.00;;;6.70;99.90;;;;;;5063323;28;20255;-69
2023/12/14 05:23:27;;;;;;;4.63;3.85;;;6.80;99.90;;;;;;5065587;28;20304;-71
2023/12/14 05:25:54;;;;;;;5.00;3.95;;;6.80;99.90;;;;;;5067924;28;20272;-70
2023/12/14 05:28:21;;;;;;;7.97;4.60;;;6.80;99.90;;;;;;5068652;28;20211;-71
2023/12/14 05:30:49;;;;;;;11.57;5.18;;;6.70;99.90;;;;;;5063296;28;20309;-72
2023/12/14 05:33:16;;;;;;;6.25;4.63;;;6.70;99.90;;;;;;5056619;28;20239;-71
2023/12/14 05:35:43;;;;;;;7.32;4.35;;;6.70;99.90;;;;;;5064097;28;20230;-69
2023/12/14 05:38:10;;;;;;;7.35;4.88;;;6.70;99.90;;;;;;5068430;28;20296;-74
2023/12/14 05:40:37;;;;;;;5.95;4.85;;;6.70;99.90;;;;;;5067447;28;20227;-69
2023/12/14 05:43:04;;;;;;;8.90;4.90;;;6.60;99.90;;;;;;5066015;28;20202;-71
2023/12/14 05:45:31;;;;;;;7.07;4.93;;;6.70;99.90;;;;;;5063866;28;21629;-70
2023/12/14 05:47:59;;;;;;;4.70;3.85;;;6.70;99.90;;;;;;5067497;28;20262;-71
2023/12/14 05:50:26;;;;;;;6.38;5.07;;;6.70;99.90;;;;;;5070417;28;20288;-71
2023/12/14 05:52:53;;;;;;;12.02;4.57;;;6.80;99.90;;;;;;5068678;28;20215;-72
2023/12/14 05:55:21;;;;;;;5.53;4.10;;;6.70;99.90;;;;;;5072575;28;20208;-72
2023/12/14 05:57:48;;;;;;;4.65;4.05;;;6.70;99.90;;;;;;5065016;28;20204;-68
2023/12/14 06:00:16;;;;;;;8.07;4.45;;;6.80;99.90;;;;;;5070032;28;20276;-70
2023/12/14 06:02:43;;;;;;;5.30;4.18;;;6.80;99.90;;;;;;5070906;28;20724;-72
2023/12/14 06:05:12;;;;;;;7.25;5.05;;;6.90;99.90;;;;;;5070841;28;20203;-70
2023/12/14 06:07:39;;;;;;;6.25;4.63;;;6.90;99.90;;;;;;5072117;28;20312;-70
2023/12/14 06:10:11;;;;;;;5.18;3.90;;;7.00;99.90;;;;;;5069845;28;21606;-71
2023/12/14 06:12:39;;;;;;;5.70;4.05;;;7.00;99.90;;;;;;5066204;28;20286;-71
2023/12/14 06:15:07;;;;;;;8.68;4.15;;;7.00;99.90;;;;;;5063735;28;20598;-70
2023/12/14 06:17:37;;;;;;;6.72;4.32;;;7.00;99.90;;;;;;5071628;28;20235;-72
2023/12/14 06:20:05;;;;;;;5.13;3.45;;;7.10;99.90;;;;;;5069175;28;20365;-68
2023/12/14 06:22:33;;;;;;;4.75;4.00;;;7.10;99.90;;;;;;5060117;28;20310;-68
2023/12/14 06:25:00;;;;;;;11.00;4.78;;;7.00;99.90;;;;;;5070662;28;20212;-72
2023/12/14 06:27:27;;;;;;;8.60;4.60;;;7.00;99.90;;;;;;5068101;28;20224;-68
2023/12/14 06:29:54;;;;;;;10.05;4.45;;;7.00;99.90;;;;;;5071559;28;20207;-75
2023/12/14 06:32:23;;;;;;;7.05;3.88;;;7.00;99.90;;;;;;5068917;28;20199;-68
2023/12/14 06:34:51;;;;;;;5.72;3.70;;;7.00;99.90;;;;;;5066724;28;20199;-73
2023/12/14 06:37:18;;;;;;;4.45;3.80;;;7.10;99.90;;;;;;5069503;28;20214;-69
2023/12/14 06:39:46;;;;;;;7.75;4.90;;;7.10;99.90;;;;;;5068415;28;20196;-69
2023/12/14 06:42:13;;;;;;;5.45;4.30;;;7.20;99.90;;;;;;5062670;28;20204;-68
2023/12/14 06:44:45;;;;;;;15.27;4.75;;;7.20;99.90;;;;;;5074029;28;20994;-69
2023/12/14 06:47:13;;;;;;;5.28;3.83;;;7.20;99.90;;;;;;5062665;28;20245;-69
2023/12/14 06:49:40;;;;;;;3.72;3.40;;;7.20;99.90;;;;;;5064371;28;20621;-67
2023/12/14 06:52:09;;;;;;;8.85;4.05;;;7.20;99.90;;;;;;5073701;28;20318;-67
2023/12/14 06:54:35;;;;;;;8.23;4.50;;;7.20;99.90;;;;;;5071406;28;20508;-70
2023/12/14 06:57:05;;;;;;;8.13;4.50;;;7.20;99.90;;;;;;5072933;28;20457;-68
2023/12/14 06:59:32;;;;;;;8.38;5.18;;;7.30;99.90;;;;;;5071477;28;20223;-69
2023/12/14 07:01:59;;;;;;;4.13;3.65;;;7.40;99.90;;;;;;5073802;28;20219;-68
2023/12/14 07:04:25;;;;;;;7.07;4.43;;;7.40;99.90;;;;;;5070584;28;20249;-70
2023/12/14 07:06:53;;;;;;;11.25;3.80;;;7.30;99.90;;;;;;5066352;28;20269;-70
2023/12/14 07:09:20;;;;;;;6.97;4.68;;;7.30;99.90;;;;;;5069733;28;20208;-69
2023/12/14 07:11:47;;;;;;;8.25;5.28;;;7.30;99.90;;;;;;5072481;28;20227;-67
2023/12/14 07:14:15;;;;;;;9.88;3.60;;;7.30;99.90;;;;;;5069894;28;20248;-70
2023/12/14 07:16:42;;;;;;;6.32;3.95;;;7.20;99.90;;;;;;5064723;28;20192;-69
2023/12/14 07:19:10;;;;;;;7.35;3.55;;;7.30;99.90;;;;;;5071188;28;20274;-71
2023/12/14 07:21:37;;;;;;;6.93;3.55;;;7.20;99.90;;;;;;5069068;28;20247;-67
2023/12/14 07:24:04;;;;;;;5.88;3.63;;;7.10;99.90;;;;;;5072140;28;20212;-71
2023/12/14 07:26:31;;;;;;;8.27;3.92;;;7.10;99.90;;;;;;5066621;28;20280;-69
2023/12/14 07:28:58;;;;;;;5.70;4.60;;;7.10;99.90;;;;;;5072747;28;20318;-73
2023/12/14 07:31:28;;;;;;;5.18;3.38;;;7.10;99.90;;;;;;5070113;28;20255;-71
2023/12/14 07:33:56;;;;;;;5.40;3.67;;;7.10;99.90;;;;;;5070251;28;20203;-70
2023/12/14 07:36:23;;;;;;;5.05;3.83;;;7.10;99.90;;;;;;5070807;28;20341;-69
2023/12/14 07:38:50;;;;;;;4.55;3.00;;;7.10;99.90;;;;;;5058342;28;20300;-70
2023/12/14 07:41:17;;;;;;;6.00;3.65;;;7.20;99.90;;;;;;5063056;28;20281;-70
2023/12/14 07:43:44;;;;;;;7.13;3.70;;;7.10;99.90;;;;;;5065500;28;20199;-70
2023/12/14 07:46:11;;;;;;;5.38;3.20;;;7.20;99.90;;;;;;5064398;28;20728;-70
2023/12/14 07:48:39;;;;;;;5.28;3.42;;;7.10;99.90;;;;;;5061963;28;20740;-70
2023/12/14 07:51:05;;;;;;;10.75;4.10;;;7.20;99.90;;;;;;5061405;28;20281;-67
2023/12/14 07:53:32;;;;;;;6.35;3.30;;;7.30;99.90;;;;;;5064392;28;20287;-69
2023/12/14 07:56:02;;;;;;;6.75;4.63;;;7.30;99.90;;;;;;5068304;28;20235;-68
2023/12/14 07:58:29;;;;;;;10.27;5.97;;;7.30;99.90;;;;;;5063102;28;20266;-68
2023/12/14 08:00:56;;;;;;;7.20;4.40;;;7.30;99.90;;;;;;5068799;28;20228;-71
2023/12/14 08:03:23;;;;;;;13.23;6.57;;;7.20;99.90;;;;;;5063505;28;20207;-68
2023/12/14 08:05:51;;;;;;;18.30;6.20;;;7.10;99.90;;;;;;5070681;28;20236;-72
2023/12/14 08:08:19;;;;;;;9.90;6.07;;;7.10;99.90;;;;;;5070001;28;20249;-72
2023/12/14 08:10:46;;;;;;;9.15;5.55;;;7.10;99.90;;;;;;5069387;28;20710;-72
2023/12/14 08:13:13;;;;;;;13.40;6.93;;;7.20;99.90;;;;;;5064493;28;20254;-73
2023/12/14 08:15:41;;;;;;;10.27;7.15;;;7.20;99.90;;;;;;5058005;28;20268;-70
2023/12/14 08:18:08;;;;;;;15.60;8.52;;;7.20;99.90;;;;;;5067465;28;20663;-72
2023/12/14 08:20:36;;;;;;;13.45;7.88;;;7.10;99.90;;;;;;5061775;28;20223;-73
2023/12/14 08:23:04;;;;;;;20.20;8.32;;;7.10;99.90;;;;;;5066729;28;20284;-69
2023/12/14 08:25:31;;;;;;;18.63;9.75;;;7.00;99.90;;;;;;5058766;28;20277;-70
2023/12/14 08:27:58;;;;;;;13.48;8.68;;;7.00;99.90;;;;;;5064796;28;20231;-73
2023/12/14 08:30:25;;;;;;;17.35;10.25;;;7.10;99.90;;;;;;5067893;28;20705;-73
2023/12/14 08:32:52;;;;;;;14.60;9.45;;;7.20;99.90;;;;;;5071481;28;20199;-71
2023/12/14 08:35:19;;;;;;;11.95;8.10;;;7.20;99.90;;;;;;5064736;28;20207;-69
2023/12/14 08:37:46;;;;;;;16.45;9.80;;;7.20;99.90;;;;;;5070121;28;20257;-67
2023/12/14 08:40:15;;;;;;;12.88;7.55;;;7.20;99.90;;;;;;5067259;28;20226;-69
2023/12/14 08:42:42;;;;;;;11.07;8.10;;;7.30;99.90;;;;;;5067473;28;20282;-69
2023/12/14 08:45:11;;;;;;;12.48;8.07;;;7.40;99.90;;;;;;5065550;28;20238;-72
2023/12/14 08:47:38;;;;;;;18.08;8.95;;;7.40;99.90;;;;;;5067807;28;20223;-71
2023/12/14 08:50:07;;;;;;;12.15;8.82;;;7.40;99.90;;;;;;5059800;28;20281;-72
2023/12/14 08:52:34;;;;;;;12.43;7.75;;;7.30;99.90;;;;;;5066782;28;20211;-69
2023/12/14 08:55:02;;;;;;;13.35;7.13;;;7.30;99.90;;;;;;5064647;28;20672;-70
2023/12/14 08:57:30;;;;;;;14.30;9.15;;;7.30;99.90;;;;;;5058770;28;20269;-71
2023/12/14 08:59:57;;;;;;;12.57;7.95;;;7.50;99.90;;;;;;5062049;28;20224;-70
2023/12/14 09:02:25;;;;;;;11.43;7.75;;;7.60;99.90;;;;;;5072166;28;20253;-73
2023/12/14 09:04:52;;;;;;;14.27;9.15;;;7.70;99.90;;;;;;5072885;28;20278;-72
2023/12/14 09:07:20;;;;;;;13.48;8.40;;;7.80;99.90;;;;;;5062995;28;20306;-69
2023/12/14 09:09:47;;;;;;;12.00;7.00;;;8.00;99.90;;;;;;5060997;28;20295;-72
2023/12/14 09:12:14;;;;;;;14.32;8.48;;;8.00;99.90;;;;;;5068553;28;20211;-73
2023/12/14 09:14:42;;;;;;;18.23;9.35;;;8.00;99.90;;;;;;5061820;28;20207;-69
2023/12/14 09:17:09;;;;;;;28.23;18.00;;;8.00;99.90;;;;;;5062762;28;20252;-73
2023/12/14 09:19:36;;;;;;;31.88;18.95;;;8.10;99.90;;;;;;5066942;28;20203;-71
2023/12/14 09:22:03;;;;;;;22.48;13.45;;;8.20;99.90;;;;;;5068991;28;20231;-71
2023/12/14 09:24:30;;;;;;;11.85;9.77;;;8.20;99.90;;;;;;5064412;28;20737;-73
2023/12/14 09:26:57;;;;;;;15.13;7.70;;;8.20;99.90;;;;;;5070005;28;20203;-73
2023/12/14 09:29:24;;;;;;;13.93;7.85;;;8.20;99.90;;;;;;5071613;28;20269;-68
2023/12/14 09:31:52;;;;;;;11.02;8.25;;;8.10;99.90;;;;;;5065654;28;20268;-72
2023/12/14 09:34:19;;;;;;;12.43;8.25;;;8.00;99.90;;;;;;5059489;28;20204;-69
2023/12/14 09:36:47;;;;;;;11.77;8.02;;;8.00;99.90;;;;;;5075137;28;20211;-71
2023/12/14 09:39:15;;;;;;;10.98;7.13;;;8.00;99.90;;;;;;5065795;28;20206;-71
2023/12/14 09:41:42;;;;;;;13.45;7.85;;;7.90;99.90;;;;;;5073259;28;20223;-70
2023/12/14 09:44:09;;;;;;;13.85;8.15;;;7.80;99.90;;;;;;5066834;28;20341;-72
2023/12/14 09:46:38;;;;;;;10.40;7.35;;;7.80;99.90;;;;;;5063495;28;20218;-70
2023/12/14 09:49:07;;;;;;;12.20;8.57;;;7.80;99.90;;;;;;5073486;28;20230;-71
2023/12/14 09:51:34;;;;;;;11.98;7.40;;;7.90;99.90;;;;;;5073250;28;20723;-72
2023/12/14 09:54:01;;;;;;;9.05;6.78;;;8.00;99.90;;;;;;5062968;28;20204;-72
2023/12/14 09:56:28;;;;;;;10.18;6.70;;;8.20;99.90;;;;;;5071739;28;20211;-70
2023/12/14 09:58:56;;;;;;;16.10;7.15;;;8.30;99.90;;;;;;5063123;28;20199;-71
2023/12/14 10:01:24;;;;;;;9.95;6.68;;;8.40;99.90;;;;;;5067841;28;20258;-74
2023/12/14 10:04:07;;;;;;;13.70;9.70;;;8.40;99.90;;;;;;5064381;28;20700;-69
2023/12/14 10:06:35;;;;;;;9.25;6.65;;;8.40;99.90;;;;;;5069407;28;20244;-71
2023/12/14 10:09:03;;;;;;;12.57;7.40;;;8.50;99.90;;;;;;5062711;28;20349;-70
2023/12/14 10:11:30;;;;;;;9.82;6.63;;;8.50;99.90;;;;;;5063470;28;20224;-69
2023/12/14 10:13:57;;;;;;;10.80;6.68;;;8.50;99.90;;;;;;5067857;28;20302;-71
2023/12/14 10:16:31;;;;;;;12.13;6.60;;;8.50;99.90;;;;;;5057545;28;20203;-72
2023/12/14 10:18:59;;;;;;;12.60;6.90;;;8.30;99.90;;;;;;5069773;28;20204;-72
2023/12/14 10:21:27;;;;;;;14.73;8.45;;;8.10;99.90;;;;;;5061116;28;20216;-70
2023/12/14 10:23:58;;;;;;;11.65;6.70;;;7.90;99.90;;;;;;5068785;28;20260;-71
2023/12/14 10:26:26;;;;;;;11.13;8.13;;;8.00;99.90;;;;;;5068689;28;20733;-73
2023/12/14 10:28:53;;;;;;;13.07;8.32;;;8.20;99.90;;;;;;5064024;28;20220;-70
2023/12/14 10:31:21;;;;;;;17.77;8.60;;;8.20;99.90;;;;;;5071522;28;20219;-68
2023/12/14 10:33:48;;;;;;;8.73;6.60;;;8.30;99.90;;;;;;5070593;28;20253;-71
2023/12/14 10:36:19;;;;;;;11.88;6.95;;;8.40;99.90;;;;;;5072523;28;20682;-69
2023/12/14 10:38:49;;;;;;;10.05;8.43;;;8.50;99.90;;;;;;5067248;28;20242;-70
2023/12/14 10:41:18;;;;;;;11.77;7.75;;;8.60;99.90;;;;;;5073172;28;20223;-74
2023/12/14 10:43:47;;;;;;;9.65;7.05;;;8.40;99.90;;;;;;5069022;28;20397;-72
2023/12/14 10:46:15;;;;;;;11.35;7.25;;;8.30;99.90;;;;;;5062789;28;20204;-70
2023/12/14 10:48:46;;;;;;;10.30;7.28;;;8.30;99.90;;;;;;5072228;28;20246;-68
2023/12/14 10:51:13;;;;;;;13.63;8.32;;;8.30;99.90;;;;;;5067576;28;20270;-73
2023/12/14 10:53:43;;;;;;;14.77;7.85;;;8.30;99.90;;;;;;5072330;28;20207;-72
2023/12/14 10:56:11;;;;;;;9.35;6.68;;;8.30;99.90;;;;;;5065749;28;20200;-71
2023/12/14 10:58:52;;;;;;;12.88;7.22;;;8.40;99.90;;;;;;5073136;28;20543;-70
2023/12/14 11:01:23;;;;;;;8.23;6.47;;;8.60;99.90;;;;;;5066139;28;20232;-68
2023/12/14 11:03:51;;;;;;;11.90;7.28;;;8.60;99.90;;;;;;5066076;28;20214;-71
2023/12/14 11:06:32;;;;;;;10.95;7.40;;;8.70;99.90;;;;;;5068909;28;20684;-69
2023/12/14 11:09:00;;;;;;;11.25;8.07;;;8.60;99.90;;;;;;5067178;28;20686;-67
2023/12/14 11:11:30;;;;;;;17.38;9.15;;;8.60;99.90;;;;;;5071722;28;20251;-72
2023/12/14 11:13:59;;;;;;;14.48;11.05;;;8.70;99.90;;;;;;5067773;28;20199;-74
2023/12/14 11:16:29;;;;;;;11.18;7.88;;;8.80;99.90;;;;;;5064164;28;20636;-69
2023/12/14 11:19:25;;;;;;;19.17;12.60;;;8.70;99.90;;;;;;5069518;28;20231;-73
2023/12/14 11:22:12;;;;;;;9.13;8.07;;;8.60;99.90;;;;;;5065572;28;20227;-69
2023/12/14 11:24:43;;;;;;;10.77;7.10;;;8.60;99.90;;;;;;5069582;28;20212;-72
2023/12/14 11:27:10;;;;;;;12.00;7.95;;;8.60;99.90;;;;;;5068076;28;20290;-70
2023/12/14 11:29:41;;;;;;;12.30;7.93;;;8.60;99.90;;;;;;5072080;28;20277;-70
2023/12/14 11:32:08;;;;;;;7.63;6.63;;;8.50;99.90;;;;;;5067442;28;20199;-68
2023/12/14 11:34:35;;;;;;;10.77;7.35;;;8.50;99.90;;;;;;5072115;28;20684;-72
2023/12/14 11:37:03;;;;;;;9.05;5.65;;;8.50;99.90;;;;;;5070430;28;20257;-68
2023/12/14 11:39:31;;;;;;;13.05;6.72;;;8.50;99.90;;;;;;5071040;28;20227;-71
2023/12/14 11:42:02;;;;;;;10.60;7.03;;;8.60;99.90;;;;;;5072218;28;20277;-71
2023/12/14 11:44:30;;;;;;;9.95;7.15;;;8.70;99.90;;;;;;5068072;28;20270;-72
2023/12/14 11:46:58;;;;;;;10.43;6.53;;;8.70;99.90;;;;;;5066283;28;20684;-71
2023/12/14 11:49:27;;;;;;;14.68;8.50;;;8.70;99.90;;;;;;5067315;28;20277;-72
2023/12/14 11:51:55;;;;;;;11.38;6.90;;;8.60;99.90;;;;;;5072774;28;20258;-73
2023/12/14 11:54:22;;;;;;;14.35;7.90;;;8.60;99.90;;;;;;5061301;28;20252;-70
2023/12/14 11:56:49;;;;;;;14.68;7.88;;;8.50;99.90;;;;;;5067053;28;20634;-70
2023/12/14 11:59:18;;;;;;;14.30;9.35;;;8.50;99.90;;;;;;5064261;28;20556;-70
2023/12/14 12:01:56;;;;;;;9.88;7.50;;;8.40;99.90;;;;;;5068165;28;20749;-73
2023/12/14 12:04:24;;;;;;;12.57;7.70;;;8.40;99.90;;;;;;5062660;28;20264;-71
2023/12/14 12:07:00;;;;;;;10.57;7.35;;;8.40;99.90;;;;;;5070180;28;20200;-75
2023/12/14 12:09:38;;;;;;;10.95;6.15;;;8.60;99.90;;;;;;5066992;28;20239;-71
2023/12/14 12:12:08;;;;;;;8.93;6.72;;;8.70;99.90;;;;;;5065884;28;20235;-70
2023/12/14 12:14:35;;;;;;;15.95;7.78;;;8.70;99.90;;;;;;5070088;28;20570;-71
2023/12/14 12:17:04;;;;;;;8.00;6.45;;;8.80;99.90;;;;;;5065050;28;20395;-71
2023/12/14 12:19:33;;;;;;;13.18;8.18;;;8.80;99.90;;;;;;5060708;28;20211;-71
2023/12/14 12:22:00;;;;;;;11.48;7.05;;;8.90;99.90;;;;;;5070730;28;20220;-70
2023/12/14 12:24:28;;;;;;;12.55;7.30;;;8.90;99.90;;;;;;5065262;28;20200;-68
2023/12/14 12:26:55;;;;;;;9.23;6.65;;;8.90;99.90;;;;;;5071881;28;20199;-72
2023/12/14 12:29:22;;;;;;;10.60;7.78;;;8.90;99.90;;;;;;5066676;28;20219;-70
2023/12/14 12:31:49;;;;;;;14.30;8.15;;;8.80;99.90;;;;;;5065307;28;20223;-69
2023/12/14 12:34:16;;;;;;;12.32;7.20;;;8.70;99.90;;;;;;5072304;28;20231;-71
2023/12/14 12:36:44;;;;;;;17.20;6.82;;;8.70;99.90;;;;;;5071674;28;20302;-72
2023/12/14 12:39:11;;;;;;;8.93;6.93;;;8.70;99.90;;;;;;5066913;28;20195;-71
2023/12/14 12:41:38;;;;;;;9.15;6.50;;;8.70;99.90;;;;;;5068684;28;20235;-71
2023/12/14 12:44:07;;;;;;;13.27;7.90;;;8.80;99.90;;;;;;5066321;28;20210;-72
2023/12/14 12:46:35;;;;;;;11.95;8.82;;;8.80;99.90;;;;;;5072177;28;20217;-68
2023/12/14 12:49:04;;;;;;;9.27;6.53;;;8.70;99.90;;;;;;5066941;28;20300;-73
2023/12/14 12:51:31;;;;;;;10.82;7.25;;;8.60;99.90;;;;;;5064350;28;20223;-71
2023/12/14 12:54:00;;;;;;;11.05;8.63;;;8.60;99.90;;;;;;5069557;28;20207;-72
2023/12/14 12:56:27;;;;;;;12.15;7.03;;;8.40;99.90;;;;;;5064645;28;20265;-71